createdAt,value
2019-03-26T00:02:21.055Z,4
2019-03-26T00:07:26.489Z,4.1
2019-03-26T00:12:31.978Z,4.9
2019-03-26T00:17:37.442Z,4.5
2019-03-26T00:22:42.635Z,5.1
2019-03-26T00:27:46.351Z,4.3
2019-03-26T00:32:51.494Z,4.6
2019-03-26T00:37:56.929Z,4.8
2019-03-26T00:43:02.095Z,4.6
2019-03-26T00:48:07.591Z,4.5
2019-03-26T00:53:13.033Z,4.7
2019-03-26T00:58:18.668Z,4.7
2019-03-26T01:03:24.055Z,5
2019-03-26T01:08:30.647Z,5.5
2019-03-26T01:13:35.830Z,5.1
2019-03-26T01:18:41.367Z,4.6
2019-03-26T01:23:46.587Z,5.1
2019-03-26T01:28:52.315Z,4.8
2019-03-26T01:33:57.403Z,5.1
2019-03-26T01:39:01.274Z,5
2019-03-26T01:44:06.370Z,4.7
2019-03-26T01:49:11.620Z,5.1
2019-03-26T01:59:24.590Z,5.1
2019-03-26T02:04:29.621Z,4.9
2019-03-26T02:09:34.990Z,4.8
2019-03-26T02:14:40.371Z,4.9
2019-03-26T02:19:45.555Z,5.1
2019-03-26T02:24:51.103Z,5.2
2019-03-26T02:29:56.749Z,5.1
2019-03-26T02:35:19.284Z,5.9
2019-03-26T02:40:04.835Z,6
2019-03-26T02:45:09.784Z,5.5
2019-03-26T02:50:15.209Z,5.6
2019-03-26T02:55:20.492Z,5.9
2019-03-26T03:00:25.844Z,5.7
2019-03-26T03:05:36.947Z,5.2
2019-03-26T03:10:32.317Z,5.7
2019-03-26T03:15:37.284Z,5.2
2019-03-26T03:20:42.482Z,5.5
2019-03-26T03:25:47.459Z,5.5
2019-03-26T03:30:52.718Z,5.8
2019-03-26T03:35:57.929Z,5.8
2019-03-26T03:41:03.319Z,5.9
2019-03-26T03:46:08.895Z,5.7
2019-03-26T03:51:14.326Z,6.1
2019-03-26T03:56:19.738Z,5.6
2019-03-26T04:01:25.234Z,5.6
2019-03-26T04:06:30.317Z,6.1
2019-03-26T04:11:37.994Z,5.9
2019-03-26T04:16:44.758Z,6.1
2019-03-26T04:21:50.100Z,5.8
2019-03-26T04:26:55.412Z,6.1
2019-03-26T04:32:01.311Z,6.2
2019-03-26T04:37:09.943Z,5.1
2019-03-26T04:42:09.121Z,5.7
2019-03-26T04:47:14.199Z,5.4
2019-03-26T04:52:19.420Z,5.7
2019-03-26T04:57:23.176Z,7.7
2019-03-26T05:02:28.833Z,9.8
2019-03-26T05:07:34.043Z,8.7
2019-03-26T05:12:39.410Z,8.3
2019-03-26T05:17:43.246Z,6
2019-03-26T05:22:48.668Z,5.5
2019-03-26T05:27:52.646Z,5.2
2019-03-26T05:32:58.374Z,5
2019-03-26T05:38:02.240Z,4.9
2019-03-26T05:43:08.028Z,4.6
2019-03-26T05:48:13.559Z,5
2019-03-26T05:53:18.938Z,4.7
2019-03-26T05:58:24.143Z,5.2
2019-03-26T06:03:29.466Z,5.1
2019-03-26T06:08:34.700Z,5.2
2019-03-26T06:13:38.325Z,5.2
2019-03-26T06:18:43.312Z,5.7
2019-03-26T06:23:46.980Z,5.2
2019-03-26T06:28:52.324Z,6
2019-03-26T06:33:58.000Z,7
2019-03-26T06:39:06.255Z,5.6
2019-03-26T06:44:11.545Z,5.9
2019-03-26T06:49:16.580Z,6
2019-03-26T06:54:22.368Z,5.9
2019-03-26T06:59:27.777Z,5.2
2019-03-26T07:04:32.379Z,5.2
2019-03-26T07:09:37.457Z,5.4
2019-03-26T07:14:42.980Z,5
2019-03-26T07:19:48.241Z,5.2
2019-03-26T07:24:53.574Z,4.6
2019-03-26T07:29:58.611Z,4.7
2019-03-26T07:35:02.668Z,4.4
2019-03-26T07:40:07.775Z,3.7
2019-03-26T07:45:13.185Z,3.7
2019-03-26T07:50:18.689Z,4.6
2019-03-26T07:55:23.958Z,4.7
2019-03-26T08:00:29.072Z,3.5
2019-03-26T08:05:34.180Z,4
2019-03-26T08:10:37.999Z,4
2019-03-26T08:15:43.351Z,3.7
2019-03-26T08:20:48.768Z,3.3
2019-03-26T08:25:54.642Z,3.4
2019-03-26T08:31:00.057Z,3.1
2019-03-26T08:36:05.587Z,3.9
2019-03-26T08:41:10.937Z,3.9
2019-03-26T08:46:14.559Z,3.6
2019-03-26T08:51:19.804Z,3.9
2019-03-26T08:56:23.494Z,3.6
2019-03-26T09:01:28.596Z,3.3
2019-03-26T09:06:33.651Z,3.1
2019-03-26T09:11:38.577Z,2.8
2019-03-26T09:16:44.176Z,2.9
2019-03-26T09:21:49.561Z,2.7
2019-03-26T09:26:54.970Z,2.2
2019-03-26T09:32:02.423Z,2.5
2019-03-26T09:37:08.088Z,2.4
2019-03-26T09:42:13.083Z,3.1
2019-03-26T09:47:21.274Z,2.8
2019-03-26T09:52:26.423Z,3.6
2019-03-26T09:57:31.990Z,4.7
2019-03-26T10:02:36.955Z,2.6
2019-03-26T10:07:42.113Z,2.7
2019-03-26T10:12:45.787Z,2.8
2019-03-26T10:17:50.829Z,2.6
2019-03-26T10:22:55.796Z,2.5
2019-03-26T10:27:59.926Z,2.6
2019-03-26T10:33:03.828Z,2.8
2019-03-26T10:38:09.061Z,2.5
2019-03-26T10:43:12.697Z,2.2
2019-03-26T10:48:17.898Z,2.3
2019-03-26T10:53:23.029Z,2.3
2019-03-26T10:58:28.517Z,2
2019-03-26T11:03:33.596Z,2.1
2019-03-26T11:08:38.923Z,2.7
2019-03-26T11:13:44.061Z,2.2
2019-03-26T11:18:49.717Z,1.9
2019-03-26T11:23:54.750Z,2.4
2019-03-26T11:29:00.426Z,2.2
2019-03-26T11:34:05.662Z,1.7
2019-03-26T11:39:10.814Z,2.5
2019-03-26T11:44:15.955Z,1.8
2019-03-26T11:49:21.334Z,2
2019-03-26T11:54:27.320Z,1.9
2019-03-26T11:59:32.843Z,2.2
2019-03-26T12:04:37.732Z,2.6
2019-03-26T12:09:47.537Z,2.6
2019-03-26T12:14:52.768Z,2.4
2019-03-26T12:19:56.381Z,1.8
2019-03-26T12:25:01.468Z,2.8
2019-03-26T12:30:06.771Z,2.7
2019-03-26T12:35:11.816Z,2.6
2019-03-26T12:40:17.221Z,2
2019-03-26T12:45:22.230Z,2.2
2019-03-26T12:50:27.643Z,2
2019-03-26T12:55:36.275Z,2.6
2019-03-26T13:00:40.280Z,2.5
2019-03-26T13:05:44.059Z,2.8
2019-03-26T13:10:54.883Z,4.1
2019-03-26T13:15:50.190Z,3.6
2019-03-26T13:20:55.262Z,3.2
2019-03-26T13:25:58.969Z,2.6
2019-03-26T13:31:04.158Z,2.9
2019-03-26T13:36:09.442Z,3.3
2019-03-26T13:41:15.458Z,2.9
2019-03-26T13:46:21.224Z,4.3
2019-03-26T13:51:26.780Z,3.4
2019-03-26T13:56:32.199Z,11.5
2019-03-26T14:01:37.301Z,8.7
2019-03-26T14:06:42.755Z,5.8
2019-03-26T14:11:48.121Z,5.2
2019-03-26T14:16:52.247Z,5.5
2019-03-26T14:21:58.219Z,4.6
2019-03-26T14:27:03.575Z,4.5
2019-03-26T14:32:08.735Z,5.1
2019-03-26T14:37:13.819Z,4.6
2019-03-26T14:42:19.038Z,5.9
2019-03-26T14:47:24.478Z,6.1
2019-03-26T14:52:28.684Z,6.3
2019-03-26T14:57:33.912Z,4.3
2019-03-26T15:02:39.582Z,4.3
2019-03-26T15:07:44.928Z,4.8
2019-03-26T15:12:50.048Z,4.2
2019-03-26T15:17:55.969Z,4.9
2019-03-26T15:23:01.565Z,4.2
2019-03-26T15:28:07.299Z,3.8
2019-03-26T15:33:16.150Z,3.7
2019-03-26T15:38:20.479Z,4
2019-03-26T15:43:26.111Z,4.2
2019-03-26T15:48:31.322Z,4.1
2019-03-26T15:53:36.673Z,4.7
2019-03-26T15:58:41.897Z,4.1
2019-03-26T16:03:47.129Z,4.2
2019-03-26T16:08:52.365Z,3.7
2019-03-26T16:13:58.051Z,3.7
2019-03-26T16:19:05.150Z,3.7
2019-03-26T16:24:10.577Z,3.9
2019-03-26T16:29:14.232Z,4.3
2019-03-26T16:34:20.764Z,4
2019-03-26T16:44:31.540Z,5.9
2019-03-26T16:49:36.863Z,5.4
2019-03-26T16:54:42.135Z,5.6
2019-03-26T16:59:47.810Z,6.8
2019-03-26T17:04:53.196Z,7.6
2019-03-26T17:09:58.840Z,6.7
2019-03-26T17:15:04.299Z,5.8
2019-03-26T17:20:04.385Z,6.7
2019-03-26T17:25:10.469Z,7.3
2019-03-26T17:30:16.394Z,9.5
2019-03-26T17:35:21.956Z,8.1
2019-03-26T17:40:25.660Z,6.3
2019-03-26T17:45:30.871Z,6.2
2019-03-26T17:50:35.961Z,6.4
2019-03-26T17:55:41.274Z,6.8
2019-03-26T18:00:46.498Z,7.3
2019-03-26T18:05:52.288Z,7.9
2019-03-26T18:11:07.622Z,7.5
2019-03-26T18:16:03.503Z,6.8
2019-03-26T18:21:08.722Z,6.9
2019-03-26T18:26:14.160Z,7.3
2019-03-26T18:31:19.403Z,6.2
2019-03-26T18:36:24.736Z,6.3
2019-03-26T18:41:30.242Z,6.5
2019-03-26T18:46:35.779Z,6.4
2019-03-26T18:51:41.150Z,5.7
2019-03-26T18:56:44.777Z,6.1
2019-03-26T19:01:50.272Z,5.7
2019-03-26T19:06:55.483Z,6.5
2019-03-26T19:12:00.888Z,6.5
2019-03-26T19:17:06.410Z,6.5
2019-03-26T19:22:11.810Z,7.8
2019-03-26T19:27:17.105Z,7
2019-03-26T19:32:22.130Z,6.5
2019-03-26T19:37:27.879Z,6.7
2019-03-26T19:42:31.706Z,7.9
2019-03-26T19:47:36.876Z,7.5
2019-03-26T19:52:42.515Z,7.4
2019-03-26T19:57:48.328Z,8.2
2019-03-26T20:02:57.709Z,8.1
2019-03-26T20:08:03.732Z,7.6
2019-03-26T20:13:09.165Z,7
2019-03-26T20:18:19.091Z,7
2019-03-26T20:23:24.129Z,8.2
2019-03-26T20:28:29.669Z,8.7
2019-03-26T20:33:34.863Z,9
2019-03-26T20:38:40.199Z,9.7
2019-03-26T20:43:45.590Z,8.2
2019-03-26T20:48:50.975Z,8.3
2019-03-26T20:53:56.267Z,7.6
2019-03-26T20:59:01.430Z,9
2019-03-26T21:04:06.892Z,8.1
2019-03-26T21:09:10.993Z,9.3
2019-03-26T21:14:16.096Z,8.4
2019-03-26T21:19:21.605Z,8.4
2019-03-26T21:24:26.785Z,8
2019-03-26T21:29:31.950Z,7.9
2019-03-26T21:34:37.215Z,8.2
2019-03-26T21:39:42.694Z,9
2019-03-26T21:44:47.347Z,8.7
2019-03-26T21:49:52.866Z,8.4
2019-03-26T21:54:53.291Z,8.4
2019-03-26T21:59:58.492Z,7.8
2019-03-26T22:05:03.661Z,8.8
2019-03-26T22:10:09.037Z,9.1
2019-03-26T22:15:14.333Z,9.4
2019-03-26T22:20:19.570Z,9.6
2019-03-26T22:25:24.798Z,9.4
2019-03-26T22:30:30.483Z,9.1
2019-03-26T22:35:34.317Z,9.3
2019-03-26T22:40:38.294Z,10
2019-03-26T22:45:43.527Z,9.7
2019-03-26T22:50:49.792Z,9.1
2019-03-26T22:55:55.186Z,8.1
2019-03-26T23:01:00.445Z,11.2
2019-03-26T23:06:04.347Z,12.7
2019-03-26T23:11:09.770Z,10.3
2019-03-26T23:16:14.923Z,9.5
2019-03-26T23:21:20.924Z,10.4
2019-03-26T23:26:25.019Z,11.1
2019-03-26T23:31:30.575Z,10.1
2019-03-26T23:36:36.016Z,8.8
2019-03-26T23:41:41.208Z,8.6
2019-03-26T23:46:46.769Z,9.1
2019-03-26T23:51:52.590Z,8.9
2019-03-26T23:56:57.944Z,9.2
